Time;durP1;ratioP1;P1;durP2;ratioP2;P2;SDS_P1;SDS_P2;PMS_P1;PMS_P2;Temp;Humidity;BMP_temperature;BMP_pressure;BME280_temperature;BME280_humidity;BME280_pressure;Samples;Min_cycle;Max_cycle;Signal;HPM_P1;HPM_P2
2021/03/15 00:01:48;;;;;;;4.93;4.33;;;;;;;4.28;72.72;96408.00;5068358;28;20202;-67
2021/03/15 00:04:14;;;;;;;4.93;4.30;;;;;;;4.32;72.42;96409.34;5072621;28;20235;-66
2021/03/15 00:06:40;;;;;;;9.10;4.73;;;;;;;4.27;72.61;96407.16;5064637;28;20645;-66
2021/03/15 00:09:05;;;;;;;5.80;4.70;;;;;;;4.70;70.44;96399.19;5069568;28;20582;-68
2021/03/15 00:11:31;;;;;;;7.57;4.90;;;;;;;4.41;71.28;96405.16;5068777;28;20205;-67
2021/03/15 00:13:57;;;;;;;5.90;4.57;;;;;;;4.45;71.87;96403.94;5084623;28;20283;-67
2021/03/15 00:16:22;;;;;;;5.60;4.50;;;;;;;4.28;72.56;96403.63;5073604;28;20186;-65
2021/03/15 00:18:48;;;;;;;8.70;5.23;;;;;;;4.38;71.75;96400.22;5069361;28;20186;-66
2021/03/15 00:21:13;;;;;;;6.33;4.67;;;;;;;4.35;71.83;96400.50;5060254;28;20261;-68
2021/03/15 00:23:39;;;;;;;5.13;4.63;;;;;;;4.49;71.41;96402.69;5065931;28;20202;-68
2021/03/15 00:26:05;;;;;;;5.50;4.67;;;;;;;4.40;71.77;96393.97;5071109;28;20178;-66
2021/03/15 00:28:30;;;;;;;8.10;5.10;;;;;;;4.76;70.93;96391.69;5060426;28;20174;-68
2021/03/15 00:30:56;;;;;;;5.90;5.13;;;;;;;4.50;71.41;96390.56;5069786;28;20217;-68
2021/03/15 00:33:23;;;;;;;5.70;4.43;;;;;;;4.80;70.22;96391.38;5072403;28;20198;-67
2021/03/15 00:35:50;;;;;;;7.43;4.97;;;;;;;4.60;71.37;96393.97;5063474;28;20561;-67
2021/03/15 00:38:16;;;;;;;5.83;4.77;;;;;;;4.27;71.50;96394.19;5070148;28;20440;-68
2021/03/15 00:40:41;;;;;;;11.00;5.13;;;;;;;4.32;71.13;96393.78;5076793;28;20795;-67
2021/03/15 00:43:07;;;;;;;9.83;6.10;;;;;;;4.52;70.90;96389.47;5074737;28;20214;-67
2021/03/15 00:45:32;;;;;;;8.03;4.77;;;;;;;4.55;70.76;96386.59;5076696;28;20182;-67
2021/03/15 00:47:58;;;;;;;7.83;4.97;;;;;;;4.53;70.74;96385.91;5073954;28;20190;-66
2021/03/15 00:50:39;;;;;;;5.60;4.50;;;;;;;4.44;71.14;96392.72;5075185;28;20181;-65
2021/03/15 00:53:05;;;;;;;6.90;5.03;;;;;;;3.96;73.16;96383.03;5074552;28;20194;-65
2021/03/15 00:55:32;;;;;;;5.80;5.03;;;;;;;4.56;71.31;96390.00;5071388;28;20444;-66
2021/03/15 00:57:58;;;;;;;9.77;5.27;;;;;;;4.35;72.22;96387.53;5058049;28;20911;-67
2021/03/15 01:00:27;;;;;;;7.93;5.27;;;;;;;4.49;71.64;96388.91;5075208;28;20427;-68
2021/03/15 01:02:52;;;;;;;6.67;4.50;;;;;;;4.61;71.10;96382.66;5074179;28;20741;-66
2021/03/15 01:05:24;;;;;;;9.63;5.47;;;;;;;3.90;73.45;96383.56;5075710;28;20511;-67
2021/03/15 01:07:50;;;;;;;8.07;4.70;;;;;;;4.31;71.74;96381.75;5071237;28;20277;-67
2021/03/15 01:10:21;;;;;;;5.20;4.70;;;;;;;4.63;70.28;96378.16;5072259;28;20424;-67
2021/03/15 01:12:47;;;;;;;6.90;4.73;;;;;;;4.72;70.39;96376.50;5071824;28;20436;-67
2021/03/15 01:15:13;;;;;;;8.27;5.70;;;;;;;4.71;70.13;96373.09;5074776;28;20428;-67
2021/03/15 01:17:39;;;;;;;7.80;5.53;;;;;;;4.65;70.50;96372.81;5072531;28;20657;-67
2021/03/15 01:20:07;;;;;;;5.83;5.13;;;;;;;4.67;69.85;96376.91;5075832;28;20419;-67
2021/03/15 01:22:33;;;;;;;6.37;5.07;;;;;;;4.58;70.31;96377.72;5073244;28;20277;-67
2021/03/15 01:24:59;;;;;;;7.23;4.53;;;;;;;4.50;70.77;96372.38;5054622;28;21011;-67
2021/03/15 01:27:24;;;;;;;8.97;5.43;;;;;;;4.23;72.07;96373.84;5071509;28;20452;-68
2021/03/15 01:29:50;;;;;;;6.97;5.13;;;;;;;4.54;70.20;96371.16;5070663;28;20206;-66
2021/03/15 01:32:16;;;;;;;9.20;4.80;;;;;;;4.38;70.61;96359.53;5056303;28;20190;-66
2021/03/15 01:34:41;;;;;;;7.63;4.87;;;;;;;4.36;71.14;96358.84;5075569;28;20202;-67
2021/03/15 01:37:07;;;;;;;8.43;5.07;;;;;;;4.46;70.99;96359.69;5074459;28;20598;-67
2021/03/15 01:39:32;;;;;;;8.00;5.10;;;;;;;4.52;70.90;96352.31;5074874;28;20186;-66
2021/03/15 01:41:59;;;;;;;9.97;5.30;;;;;;;4.49;70.63;96352.59;5055935;28;20198;-67
2021/03/15 01:44:25;;;;;;;15.93;5.33;;;;;;;4.11;71.03;96355.78;5074331;28;20294;-66
2021/03/15 01:46:51;;;;;;;8.37;5.57;;;;;;;3.73;72.99;96346.09;5071622;28;21073;-67
2021/03/15 01:49:16;;;;;;;9.07;5.10;;;;;;;4.00;72.96;96342.94;5070224;28;20684;-66
2021/03/15 01:51:42;;;;;;;9.27;5.87;;;;;;;3.57;74.77;96333.63;5069043;28;20220;-67
2021/03/15 01:54:08;;;;;;;6.90;5.00;;;;;;;4.15;72.91;96336.44;5064495;28;20587;-68
2021/03/15 01:56:35;;;;;;;10.53;5.60;;;;;;;3.65;74.57;96326.03;5056102;28;20277;-66
2021/03/15 01:59:01;;;;;;;8.77;4.93;;;;;;;3.69;74.52;96328.25;5063599;28;20673;-66
2021/03/15 02:01:27;;;;;;;6.93;5.20;;;;;;;3.85;74.29;96332.09;5072261;28;20421;-66
2021/03/15 02:03:52;;;;;;;8.13;5.47;;;;;;;3.95;73.21;96325.19;5074938;28;20214;-67
2021/03/15 02:06:18;;;;;;;13.57;5.83;;;;;;;4.06;74.16;96326.03;5068715;28;20265;-66
2021/03/15 02:08:43;;;;;;;7.83;4.90;;;;;;;4.05;73.97;96314.00;5071566;28;20186;-69
2021/03/15 02:11:24;;;;;;;11.70;5.83;;;;;;;3.83;74.18;96316.69;5057722;28;20669;-66
2021/03/15 02:14:00;;;;;;;12.43;5.77;;;;;;;4.23;73.28;96309.00;5073318;28;20280;-67
2021/03/15 02:17:11;;;;;;;13.17;5.50;;;;;;;4.19;73.90;96289.44;5050055;28;21004;-67
2021/03/15 02:19:37;;;;;;;9.07;5.30;;;;;;;3.81;75.17;96295.25;5073200;28;20448;-65
2021/03/15 02:22:33;;;;;;;5.33;4.80;;;;;;;4.05;74.28;96296.66;5048925;28;21442;-67
2021/03/15 02:25:11;;;;;;;12.23;6.00;;;;;;;4.09;73.84;96289.47;5058164;28;20238;-65
2021/03/15 02:28:04;;;;;;;11.70;5.73;;;;;;;4.08;74.92;96283.44;5058762;28;20413;-65
2021/03/15 02:30:54;;;;;;;10.43;5.67;;;;;;;4.27;73.47;96281.84;5060470;28;20540;-66
2021/03/15 02:33:32;;;;;;;8.40;5.37;;;;;;;4.21;73.45;96282.38;5056155;28;20486;-67
2021/03/15 02:36:02;;;;;;;8.73;5.63;;;;;;;4.08;73.98;96275.66;5070096;28;20527;-67
2021/03/15 02:38:34;;;;;;;8.10;5.57;;;;;;;4.12;73.63;96271.84;5070097;28;20437;-66
2021/03/15 02:41:02;;;;;;;9.30;5.07;;;;;;;4.28;73.24;96270.50;5066956;28;20421;-69
2021/03/15 02:43:36;;;;;;;7.43;5.30;;;;;;;4.33;72.48;96270.91;5058297;28;20469;-68
2021/03/15 02:46:05;;;;;;;12.07;5.20;;;;;;;4.08;73.01;96257.50;5065047;28;20727;-67
2021/03/15 02:48:34;;;;;;;7.33;5.30;;;;;;;4.12;74.35;96253.69;5060014;28;20417;-68
2021/03/15 02:51:01;;;;;;;8.97;4.60;;;;;;;4.42;72.87;96244.13;5082347;28;20486;-67
2021/03/15 02:53:28;;;;;;;9.10;5.63;;;;;;;4.34;73.43;96243.19;5062641;28;20518;-68
2021/03/15 02:56:03;;;;;;;9.83;4.80;;;;;;;4.08;72.95;96234.16;5069257;28;20455;-68
2021/03/15 02:58:31;;;;;;;13.33;5.97;;;;;;;4.54;71.82;96239.63;5066652;28;20425;-68
2021/03/15 03:00:58;;;;;;;9.03;5.50;;;;;;;4.03;72.97;96244.16;5067130;28;20417;-68
2021/03/15 03:03:24;;;;;;;11.17;5.30;;;;;;;3.78;73.93;96246.25;5061764;28;20468;-65
2021/03/15 03:05:51;;;;;;;9.83;5.37;;;;;;;4.65;71.19;96243.88;5062300;28;20436;-69
2021/03/15 03:08:18;;;;;;;10.83;5.47;;;;;;;4.70;70.96;96236.47;5070762;28;20512;-66
2021/03/15 03:10:46;;;;;;;10.07;5.70;;;;;;;4.76;70.34;96233.31;5060003;28;20977;-67
2021/03/15 03:13:12;;;;;;;11.10;5.00;;;;;;;4.91;70.47;96233.69;5063404;28;20448;-66
2021/03/15 03:15:38;;;;;;;7.93;5.70;;;;;;;4.77;70.38;96236.72;5058154;28;20456;-66
2021/03/15 03:18:04;;;;;;;9.77;5.53;;;;;;;4.70;71.13;96226.09;5060584;28;20425;-66
2021/03/15 03:20:30;;;;;;;9.53;4.50;;;;;;;4.72;70.47;96213.78;5059957;28;20430;-66
2021/03/15 03:23:02;;;;;;;9.67;4.87;;;;;;;4.81;70.42;96212.13;5060281;28;20715;-66
2021/03/15 03:25:28;;;;;;;12.53;5.17;;;;;;;5.02;69.69;96211.94;5069974;28;20420;-66
2021/03/15 03:27:56;;;;;;;9.47;4.60;;;;;;;4.91;69.18;96209.53;5069326;28;20430;-68
2021/03/15 03:30:24;;;;;;;9.37;3.70;;;;;;;4.80;69.99;96205.31;5073674;28;20449;-67
2021/03/15 03:32:50;;;;;;;7.93;3.77;;;;;;;4.88;69.72;96204.59;5070197;28;20414;-69
2021/03/15 03:35:16;;;;;;;9.17;4.30;;;;;;;5.12;69.21;96193.69;5072355;28;20420;-67
2021/03/15 03:37:42;;;;;;;4.90;4.23;;;;;;;4.95;68.96;96182.28;5062197;28;20587;-67
2021/03/15 03:40:08;;;;;;;8.70;4.57;;;;;;;4.94;69.30;96185.03;5075023;28;20185;-68
2021/03/15 03:42:33;;;;;;;6.10;3.87;;;;;;;4.88;70.47;96186.44;5070944;28;20433;-68
2021/03/15 03:44:59;;;;;;;5.83;4.27;;;;;;;4.82;69.87;96189.56;5075969;28;20520;-67
2021/03/15 03:47:25;;;;;;;4.10;3.70;;;;;;;4.84;70.05;96183.31;5068981;28;20300;-68
2021/03/15 03:49:51;;;;;;;7.57;4.03;;;;;;;5.05;69.73;96167.47;5067296;28;20191;-70
2021/03/15 03:52:19;;;;;;;6.47;5.10;;;;;;;5.00;69.36;96180.09;5059539;28;20171;-69
2021/03/15 03:54:48;;;;;;;9.40;4.43;;;;;;;5.05;68.97;96185.66;5046871;28;20348;-70
2021/03/15 03:57:40;;;;;;;5.20;3.60;;;;;;;5.13;69.01;96184.16;5064057;28;21033;-69
2021/03/15 04:00:09;;;;;;;11.63;4.20;;;;;;;4.77;69.89;96195.19;5058347;28;20515;-67
2021/03/15 04:02:44;;;;;;;6.63;3.93;;;;;;;4.94;70.09;96191.03;5062908;28;20918;-70
2021/03/15 04:05:39;;;;;;;3.60;3.30;;;;;;;4.99;69.93;96194.03;5042838;28;20424;-68
2021/03/15 04:08:08;;;;;;;7.30;3.67;;;;;;;5.04;69.71;96186.63;5009979;28;20490;-70
2021/03/15 04:10:34;;;;;;;5.53;3.23;;;;;;;5.06;69.83;96184.72;5015644;28;20422;-69
2021/03/15 04:13:10;;;;;;;10.10;3.93;;;;;;;4.98;70.21;96171.63;4999702;28;20430;-69
2021/03/15 04:15:41;;;;;;;4.47;3.80;;;;;;;5.10;69.47;96176.63;5023996;28;20229;-68
2021/03/15 04:18:08;;;;;;;4.00;3.53;;;;;;;4.94;69.80;96165.06;5008570;28;20438;-70
2021/03/15 04:20:36;;;;;;;5.73;3.53;;;;;;;4.67;71.15;96178.81;5002374;28;20452;-69
2021/03/15 04:23:06;;;;;;;6.10;3.80;;;;;;;4.79;70.69;96177.69;5020450;28;20463;-69
2021/03/15 04:25:34;;;;;;;5.63;3.70;;;;;;;5.12;70.11;96177.31;5021681;28;20925;-69
2021/03/15 04:28:01;;;;;;;13.13;4.93;;;;;;;5.04;70.09;96176.22;4999772;28;20427;-68
2021/03/15 04:30:27;;;;;;;5.17;3.93;;;;;;;4.86;70.68;96165.78;4995898;28;20434;-70
2021/03/15 04:32:53;;;;;;;6.67;4.00;;;;;;;4.92;70.45;96162.63;4994360;28;20420;-68
2021/03/15 04:35:37;;;;;;;4.80;4.10;;;;;;;5.05;70.00;96156.28;5017202;28;20430;-68
2021/03/15 04:38:07;;;;;;;7.67;4.03;;;;;;;5.16;69.91;96150.09;5017200;28;20427;-67
2021/03/15 04:40:34;;;;;;;11.33;4.50;;;;;;;5.10;70.27;96137.69;5021236;28;20431;-67
2021/03/15 04:43:00;;;;;;;7.50;4.03;;;;;;;4.95;70.69;96139.94;5014715;28;20495;-69
2021/03/15 04:45:32;;;;;;;8.40;4.30;;;;;;;5.01;70.68;96128.97;5054576;28;20424;-67
2021/03/15 04:48:00;;;;;;;7.87;4.13;;;;;;;5.30;69.64;96128.00;5054792;28;20426;-66
2021/03/15 04:50:25;;;;;;;10.80;4.57;;;;;;;5.15;70.23;96128.50;5063888;28;21093;-66
2021/03/15 04:52:52;;;;;;;12.53;4.50;;;;;;;5.28;70.06;96129.94;5064229;28;20429;-66
2021/03/15 04:55:17;;;;;;;8.03;4.40;;;;;;;5.12;70.07;96126.19;5056908;28;20865;-68
2021/03/15 04:57:43;;;;;;;5.03;3.87;;;;;;;5.02;70.58;96121.03;5059305;28;20506;-66
2021/03/15 05:00:12;;;;;;;9.00;4.77;;;;;;;5.19;70.36;96127.25;5051441;28;20491;-67
2021/03/15 05:02:38;;;;;;;6.60;4.00;;;;;;;4.98;70.86;96131.88;5059024;28;20486;-67
2021/03/15 05:05:04;;;;;;;6.83;4.10;;;;;;;5.14;70.14;96120.84;5058848;28;20483;-67
2021/03/15 05:07:30;;;;;;;8.07;4.23;;;;;;;5.19;70.01;96121.22;5054362;28;20424;-68
2021/03/15 05:09:58;;;;;;;10.00;4.40;;;;;;;5.05;70.83;96115.53;5057978;28;20413;-68
2021/03/15 05:12:24;;;;;;;3.87;3.40;;;;;;;5.10;70.61;96119.50;5062352;28;20416;-67
2021/03/15 05:14:50;;;;;;;4.00;3.30;;;;;;;5.35;69.62;96108.41;5064470;28;20444;-68
2021/03/15 05:17:16;;;;;;;7.40;3.60;;;;;;;5.15;70.10;96106.91;5056373;28;20427;-69
2021/03/15 05:19:43;;;;;;;7.60;4.07;;;;;;;5.13;70.71;96106.22;5058922;28;20647;-68
2021/03/15 05:22:10;;;;;;;7.03;3.80;;;;;;;5.19;70.15;96095.25;5064206;28;20444;-69
2021/03/15 05:24:36;;;;;;;8.23;4.07;;;;;;;5.18;70.17;96093.59;5062703;28;20445;-69
2021/03/15 05:27:02;;;;;;;6.73;4.33;;;;;;;5.19;70.09;96090.03;5061234;28;20421;-69
2021/03/15 05:29:28;;;;;;;6.47;3.57;;;;;;;5.20;70.84;96076.09;5057516;28;20792;-68
2021/03/15 05:31:54;;;;;;;6.67;3.90;;;;;;;5.13;71.21;96083.66;5068063;28;20931;-66
2021/03/15 05:34:21;;;;;;;4.10;3.70;;;;;;;5.02;71.38;96079.50;5045478;28;20448;-69
2021/03/15 05:36:47;;;;;;;6.87;3.13;;;;;;;4.96;71.43;96084.44;5068050;28;20424;-66
2021/03/15 05:39:13;;;;;;;5.20;3.33;;;;;;;5.00;71.43;96081.41;5065872;28;20447;-68
2021/03/15 05:42:09;;;;;;;7.23;4.07;;;;;;;5.07;71.46;96077.25;5063287;28;20506;-68
2021/03/15 05:44:57;;;;;;;5.70;3.70;;;;;;;5.12;70.71;96083.81;5066201;28;20226;-67
2021/03/15 05:47:50;;;;;;;7.07;4.00;;;;;;;5.17;70.92;96063.41;5065107;28;20417;-66
2021/03/15 05:50:53;;;;;;;5.60;3.43;;;;;;;5.11;71.09;96067.41;5057185;28;20417;-69
2021/03/15 05:53:37;;;;;;;4.63;3.50;;;;;;;4.99;70.97;96058.16;5064253;28;20485;-67
2021/03/15 05:56:28;;;;;;;5.73;3.63;;;;;;;4.84;71.93;96055.25;5067008;28;20419;-67
2021/03/15 05:59:31;;;;;;;9.53;3.83;;;;;;;4.88;71.48;96051.41;5055175;28;20925;-67
2021/03/15 06:02:06;;;;;;;6.27;4.17;;;;;;;4.62;72.37;96052.09;5054436;28;20487;-69
2021/03/15 06:05:10;;;;;;;7.80;3.50;;;;;;;5.07;71.45;96045.28;5061222;28;21036;-67
2021/03/15 06:07:37;;;;;;;9.10;4.03;;;;;;;5.05;71.20;96037.63;5059995;28;20424;-68
2021/03/15 06:10:07;;;;;;;6.67;3.70;;;;;;;4.81;71.76;96038.19;5057137;28;20422;-68
2021/03/15 06:12:38;;;;;;;7.80;4.10;;;;;;;5.02;70.81;96027.56;5057320;28;20417;-68
2021/03/15 06:15:05;;;;;;;7.03;3.90;;;;;;;4.98;71.28;96026.22;5057100;28;20445;-70
2021/03/15 06:17:32;;;;;;;8.17;4.07;;;;;;;4.80;71.84;96026.19;5061038;28;20451;-68
2021/03/15 06:19:58;;;;;;;5.40;3.90;;;;;;;4.88;71.43;96025.44;5061352;28;20425;-65
2021/03/15 06:22:24;;;;;;;7.87;4.10;;;;;;;4.89;71.64;96032.28;5062661;28;20459;-70
2021/03/15 06:24:50;;;;;;;8.63;4.20;;;;;;;4.70;72.65;96023.63;5059669;28;20465;-69
2021/03/15 06:27:17;;;;;;;9.40;4.53;;;;;;;4.86;72.51;96022.19;5070629;28;20621;-69
2021/03/15 06:29:43;;;;;;;5.20;3.93;;;;;;;4.81;72.01;96014.00;5058853;28;20429;-68
2021/03/15 06:32:10;;;;;;;3.90;3.50;;;;;;;4.81;71.72;96008.81;5065156;28;20513;-69
2021/03/15 06:34:37;;;;;;;7.77;3.90;;;;;;;4.74;71.86;96009.41;5062489;28;20199;-68
2021/03/15 06:37:03;;;;;;;7.43;3.83;;;;;;;4.57;72.30;95992.81;5070635;28;20652;-67
2021/03/15 06:39:29;;;;;;;4.27;3.50;;;;;;;4.64;72.58;95992.25;5062400;28;20440;-67
2021/03/15 06:41:56;;;;;;;6.40;3.53;;;;;;;4.61;73.26;96001.13;5065991;28;20277;-67
2021/03/15 06:44:23;;;;;;;5.27;3.77;;;;;;;4.69;72.55;95996.03;5069232;28;20990;-67
2021/03/15 06:46:50;;;;;;;3.47;3.10;;;;;;;4.79;72.98;95984.78;5070359;28;20428;-68
2021/03/15 06:49:16;;;;;;;5.67;4.30;;;;;;;4.72;73.01;95993.16;5071732;28;20435;-67
2021/03/15 06:52:01;;;;;;;6.80;3.70;;;;;;;4.60;73.73;95981.34;5065124;28;20513;-68
2021/03/15 06:54:28;;;;;;;6.70;3.87;;;;;;;4.75;72.64;95984.25;5062206;28;20445;-68
2021/03/15 06:57:11;;;;;;;4.97;3.20;;;;;;;4.79;72.75;95984.78;5097434;28;20433;-69
2021/03/15 06:59:55;;;;;;;3.90;3.50;;;;;;;4.67;72.84;95987.56;5059817;28;20452;-68
2021/03/15 07:02:30;;;;;;;4.10;3.07;;;;;;;4.89;72.83;95977.75;5055748;28;20517;-69
2021/03/15 07:05:13;;;;;;;3.57;3.27;;;;;;;4.88;72.44;95984.72;5063469;28;20502;-68
2021/03/15 07:07:48;;;;;;;3.93;3.10;;;;;;;4.60;72.51;95992.53;5064375;28;20421;-68
2021/03/15 07:10:20;;;;;;;5.40;3.90;;;;;;;4.58;73.53;95988.44;5045442;28;20436;-69
2021/03/15 07:12:46;;;;;;;3.67;3.23;;;;;;;4.78;73.04;95988.34;5063919;28;20507;-69
2021/03/15 07:15:12;;;;;;;3.37;3.07;;;;;;;4.90;72.66;95992.38;5065019;28;20441;-67
2021/03/15 07:17:38;;;;;;;4.60;3.10;;;;;;;4.86;72.63;95991.81;5067976;28;20428;-68
2021/03/15 07:20:05;;;;;;;3.17;2.87;;;;;;;4.81;72.47;95993.22;5061004;28;20517;-68
2021/03/15 07:22:31;;;;;;;4.07;2.70;;;;;;;5.13;71.75;95984.97;5064682;28;20205;-68
2021/03/15 07:25:10;;;;;;;4.00;3.17;;;;;;;5.34;70.92;95997.66;5068905;28;20954;-68
2021/03/15 07:27:38;;;;;;;4.60;3.33;;;;;;;5.23;71.28;96001.28;5070761;28;20182;-69
2021/03/15 07:30:30;;;;;;;4.07;2.73;;;;;;;4.41;74.45;96003.00;5060061;28;20469;-68
2021/03/15 07:33:00;;;;;;;4.33;2.37;;;;;;;4.58;73.61;96009.19;5066157;28;20440;-68
2021/03/15 07:35:29;;;;;;;2.50;2.30;;;;;;;3.88;75.91;96007.81;5062826;28;20421;-68
2021/03/15 07:37:54;;;;;;;3.80;2.20;;;;;;;3.97;75.50;96013.94;5051915;28;20436;-67
2021/03/15 07:40:27;;;;;;;2.23;2.03;;;;;;;4.22;74.84;96003.88;5054687;28;21117;-67
2021/03/15 07:43:05;;;;;;;2.37;2.17;;;;;;;4.56;74.25;95998.16;5050068;28;20265;-67
2021/03/15 07:45:37;;;;;;;7.87;2.53;;;;;;;4.64;73.61;95998.25;5041609;28;20968;-67
2021/03/15 07:48:20;;;;;;;2.33;2.13;;;;;;;4.53;72.48;95998.47;5044901;28;20460;-67
2021/03/15 07:51:00;;;;;;;2.13;1.93;;;;;;;4.71;72.84;95993.31;5050918;28;20937;-68
2021/03/15 07:53:46;;;;;;;3.60;2.30;;;;;;;4.75;71.64;95995.47;5054483;28;20469;-68
2021/03/15 07:56:21;;;;;;;3.73;2.43;;;;;;;4.60;73.69;96010.69;5059619;28;20486;-68
2021/03/15 07:58:48;;;;;;;3.00;2.40;;;;;;;4.71;73.38;95994.13;5062490;28;20512;-69
2021/03/15 08:01:14;;;;;;;3.23;2.37;;;;;;;4.72;72.91;95998.34;5055126;28;20881;-69
2021/03/15 08:03:41;;;;;;;5.30;2.57;;;;;;;4.64;72.92;95998.25;5055958;28;20543;-67
2021/03/15 08:06:10;;;;;;;3.90;2.57;;;;;;;4.34;74.47;95996.75;5056904;28;20439;-68
2021/03/15 08:08:37;;;;;;;2.80;2.50;;;;;;;4.37;74.80;95997.28;5063307;28;20421;-67
2021/03/15 08:11:04;;;;;;;3.80;2.47;;;;;;;3.96;75.21;96007.09;5062555;28;20436;-67
2021/03/15 08:13:35;;;;;;;2.70;2.50;;;;;;;4.19;76.65;96004.16;5062806;28;20819;-68
2021/03/15 08:16:02;;;;;;;3.60;2.60;;;;;;;4.07;76.32;95998.34;5050324;28;20417;-67
2021/03/15 08:18:29;;;;;;;6.40;2.63;;;;;;;4.16;76.51;96007.88;5055185;28;20418;-69
2021/03/15 08:21:00;;;;;;;2.73;2.43;;;;;;;4.63;76.42;96012.19;5052430;28;20426;-68
2021/03/15 08:23:26;;;;;;;4.67;2.33;;;;;;;4.64;76.56;96011.25;5038436;28;20465;-67
2021/03/15 08:25:52;;;;;;;1.83;1.73;;;;;;;4.08;76.86;96011.16;5055376;28;21090;-68
2021/03/15 08:28:18;;;;;;;2.23;1.97;;;;;;;4.56;76.65;96016.31;5052191;28;20677;-70
2021/03/15 08:30:49;;;;;;;2.37;2.17;;;;;;;4.46;76.96;96019.78;5049618;28;20770;-67
2021/03/15 08:33:16;;;;;;;2.13;1.90;;;;;;;4.38;77.66;96018.84;5050996;28;20433;-67
2021/03/15 08:35:42;;;;;;;2.83;2.20;;;;;;;5.13;75.97;96012.72;5032632;28;20414;-69
2021/03/15 08:38:09;;;;;;;2.20;2.00;;;;;;;4.23;77.68;96018.50;5051089;28;20504;-69
2021/03/15 08:40:37;;;;;;;2.20;1.80;;;;;;;4.38;77.26;96024.88;5049270;28;20784;-70
2021/03/15 08:43:18;;;;;;;2.70;1.90;;;;;;;4.97;75.72;96024.56;5056236;28;20637;-69
2021/03/15 08:45:54;;;;;;;2.03;1.93;;;;;;;5.04;74.11;96017.81;5049889;28;20516;-70
2021/03/15 08:48:38;;;;;;;4.77;2.20;;;;;;;4.99;73.77;96021.81;5051749;28;20420;-67
2021/03/15 08:51:08;;;;;;;2.60;2.40;;;;;;;4.84;74.88;96024.09;5050120;28;20431;-69
2021/03/15 08:53:38;;;;;;;2.70;2.27;;;;;;;5.12;73.99;96026.66;5057301;28;20468;-69
2021/03/15 08:56:10;;;;;;;2.40;2.03;;;;;;;5.22;74.22;96023.06;5056659;28;20445;-69
2021/03/15 08:58:44;;;;;;;2.10;1.90;;;;;;;5.08;75.13;96023.56;5055677;28;20418;-67
2021/03/15 09:01:14;;;;;;;3.30;1.93;;;;;;;4.95;74.93;96038.66;5053289;28;20425;-69
2021/03/15 09:03:53;;;;;;;2.20;1.40;;;;;;;4.92;75.65;96032.81;5051978;28;20476;-73
2021/03/15 09:06:47;;;;;;;7.40;1.80;;;;;;;5.16;74.62;96031.41;5054013;28;20441;-68
2021/03/15 09:09:28;;;;;;;2.00;1.60;;;;;;;5.06;74.64;96031.47;5054284;28;20440;-67
2021/03/15 09:11:55;;;;;;;2.33;1.70;;;;;;;5.37;74.56;96038.94;5053668;28;20416;-68
2021/03/15 09:14:24;;;;;;;2.60;1.13;;;;;;;5.11;75.15;96041.41;5057382;28;20441;-70
2021/03/15 09:16:56;;;;;;;4.50;1.77;;;;;;;5.17;75.47;96046.03;5060530;28;20777;-69
2021/03/15 09:19:34;;;;;;;1.50;1.40;;;;;;;5.46;74.33;96039.00;5043573;28;20413;-68
2021/03/15 09:22:04;;;;;;;1.63;1.17;;;;;;;5.11;75.28;96051.00;5051343;28;20453;-67
2021/03/15 09:24:45;;;;;;;1.17;0.97;;;;;;;5.07;75.36;96048.69;5052738;28;21063;-69
2021/03/15 09:27:23;;;;;;;3.03;2.40;;;;;;;5.26;74.75;96053.91;5069311;28;20409;-68
2021/03/15 09:30:10;;;;;;;2.90;1.60;;;;;;;5.47;74.48;96062.25;5052804;28;20486;-69
2021/03/15 09:32:37;;;;;;;1.63;1.47;;;;;;;5.60;73.91;96045.47;5053073;28;20441;-71
2021/03/15 09:35:17;;;;;;;3.30;1.50;;;;;;;5.38;74.21;96053.56;5051519;28;20767;-69
2021/03/15 09:37:56;;;;;;;1.60;1.50;;;;;;;5.17;74.52;96051.25;5052317;28;20425;-68
2021/03/15 09:40:36;;;;;;;3.03;1.47;;;;;;;5.69;73.93;96045.38;5053122;28;20500;-68
2021/03/15 09:43:02;;;;;;;2.20;1.53;;;;;;;5.78;73.73;96053.25;5051438;28;20456;-70
2021/03/15 09:45:39;;;;;;;3.00;1.70;;;;;;;6.13;72.82;96051.59;5052750;28;20433;-65
2021/03/15 09:48:16;;;;;;;2.37;1.80;;;;;;;7.08;71.64;96050.72;5053461;28;20194;-64
2021/03/15 09:50:45;;;;;;;2.13;1.77;;;;;;;7.40;74.11;96050.94;5051228;28;20464;-63
2021/03/15 09:53:13;;;;;;;2.60;1.73;;;;;;;7.49;69.63;96056.03;5074303;28;20405;-65
2021/03/15 09:55:39;;;;;;;1.93;1.73;;;;;;;8.05;65.28;96047.56;5052445;28;20437;-65
2021/03/15 09:58:06;;;;;;;1.70;1.60;;;;;;;8.98;68.69;96047.97;5051014;28;20421;-64
2021/03/15 10:00:32;;;;;;;1.83;1.73;;;;;;;9.13;67.74;96044.66;5051643;28;20194;-65
2021/03/15 10:02:58;;;;;;;2.40;1.83;;;;;;;10.11;63.99;96044.94;5051988;28;20453;-63
2021/03/15 10:05:23;;;;;;;2.43;1.60;;;;;;;10.21;63.20;96049.91;5051827;28;20848;-65
2021/03/15 10:07:49;;;;;;;2.00;1.67;;;;;;;9.51;62.38;96047.38;5051504;28;20610;-65
2021/03/15 10:10:17;;;;;;;1.50;1.40;;;;;;;9.59;64.91;96060.38;5053703;28;20250;-67
2021/03/15 10:12:45;;;;;;;1.73;1.63;;;;;;;7.92;65.62;96058.50;5054513;28;20714;-66
2021/03/15 10:15:13;;;;;;;2.23;1.83;;;;;;;8.51;69.31;96052.22;5034451;28;20449;-66
2021/03/15 10:17:39;;;;;;;2.57;1.90;;;;;;;7.61;68.87;96064.38;5059770;28;20512;-67
2021/03/15 10:20:11;;;;;;;2.77;2.03;;;;;;;8.43;67.49;96060.06;5054665;28;20409;-64
2021/03/15 10:22:36;;;;;;;4.03;2.50;;;;;;;8.23;65.97;96067.44;5067312;28;20506;-64
2021/03/15 10:25:03;;;;;;;2.13;1.80;;;;;;;9.02;64.21;96064.97;5054408;28;20496;-63
2021/03/15 10:27:30;;;;;;;3.00;1.80;;;;;;;8.57;63.94;96059.41;5054681;28;20312;-63
2021/03/15 10:30:10;;;;;;;2.30;2.03;;;;;;;8.41;66.42;96057.63;5052656;28;20460;-63
2021/03/15 10:32:40;;;;;;;2.60;1.87;;;;;;;7.84;68.40;96074.94;5051749;28;20409;-70
2021/03/15 10:35:07;;;;;;;2.37;2.10;;;;;;;7.20;70.56;96079.91;5057221;28;20437;-69
2021/03/15 10:37:38;;;;;;;2.27;2.07;;;;;;;6.76;70.92;96083.50;5080193;28;20427;-69
2021/03/15 10:40:06;;;;;;;2.83;2.57;;;;;;;6.51;73.73;96078.16;5062801;28;20945;-69
2021/03/15 10:42:34;;;;;;;3.17;2.30;;;;;;;6.42;73.45;96077.28;5053990;28;20469;-69
2021/03/15 10:45:00;;;;;;;4.10;2.23;;;;;;;6.65;73.80;96078.56;5054351;28;20441;-68
2021/03/15 10:47:34;;;;;;;13.27;2.57;;;;;;;6.27;73.72;96077.06;5054458;28;20421;-69
2021/03/15 10:50:00;;;;;;;2.77;2.57;;;;;;;6.24;74.15;96082.56;5051444;28;20261;-67
2021/03/15 10:52:32;;;;;;;2.30;2.10;;;;;;;6.52;73.76;96079.81;5054874;28;20771;-69
2021/03/15 10:55:14;;;;;;;3.50;2.60;;;;;;;6.28;74.75;96096.06;5055498;28;20956;-68
2021/03/15 10:58:04;;;;;;;2.93;2.47;;;;;;;6.08;74.89;96096.28;5055169;28;20542;-68
2021/03/15 11:00:33;;;;;;;3.60;2.80;;;;;;;6.11;75.02;96090.75;5051050;28;20410;-69
2021/03/15 11:02:59;;;;;;;3.20;2.90;;;;;;;6.21;74.24;96106.25;5050524;28;20469;-70
2021/03/15 11:05:24;;;;;;;2.73;2.53;;;;;;;6.59;74.70;96098.22;5051854;28;20908;-69
2021/03/15 11:07:52;;;;;;;2.80;2.57;;;;;;;6.22;75.28;96105.31;5051231;28;20186;-67
2021/03/15 11:10:30;;;;;;;2.73;2.53;;;;;;;6.24;75.06;96095.56;5051396;28;20206;-67
2021/03/15 11:12:57;;;;;;;2.30;2.20;;;;;;;6.34;74.98;96084.22;5052458;28;20417;-67
2021/03/15 11:15:36;;;;;;;6.10;2.17;;;;;;;6.65;73.80;96109.81;5055219;28;20443;-67
2021/03/15 11:18:07;;;;;;;2.67;2.47;;;;;;;6.77;73.13;96105.97;5056185;28;20492;-68
2021/03/15 11:20:56;;;;;;;2.37;2.17;;;;;;;6.46;74.05;96116.84;5054453;28;20422;-69
2021/03/15 11:23:29;;;;;;;2.10;1.90;;;;;;;6.55;74.40;96120.31;5044933;28;20530;-69
2021/03/15 11:26:15;;;;;;;2.93;2.70;;;;;;;6.34;75.38;96131.06;5035175;28;20426;-68
2021/03/15 11:28:52;;;;;;;3.37;2.10;;;;;;;6.72;74.42;96113.41;5052395;28;20429;-69
2021/03/15 11:31:20;;;;;;;2.47;2.30;;;;;;;6.72;73.83;96122.06;5047159;28;20417;-69
2021/03/15 11:33:56;;;;;;;2.87;2.67;;;;;;;7.44;73.20;96120.03;5051011;28;20979;-68
2021/03/15 11:36:24;;;;;;;3.83;2.50;;;;;;;6.80;72.80;96123.88;5049055;28;20451;-70
2021/03/15 11:38:58;;;;;;;2.97;2.30;;;;;;;7.18;71.97;96124.34;5057297;28;20417;-70
2021/03/15 11:41:26;;;;;;;3.27;2.93;;;;;;;7.41;71.82;96123.81;5053648;28;20449;-69
2021/03/15 11:43:51;;;;;;;3.07;2.77;;;;;;;7.63;70.99;96126.78;5050028;28;20848;-70
2021/03/15 11:46:17;;;;;;;4.00;2.60;;;;;;;7.73;70.62;96124.81;5053600;28;20495;-68
2021/03/15 11:48:45;;;;;;;2.90;2.70;;;;;;;7.30;71.20;96139.72;5052020;28;20689;-69
2021/03/15 11:51:11;;;;;;;3.13;2.53;;;;;;;7.44;71.72;96128.66;5046289;28;20567;-69
2021/03/15 11:53:37;;;;;;;3.03;2.73;;;;;;;6.89;70.74;96128.16;5046618;28;20449;-70
2021/03/15 11:56:03;;;;;;;2.87;2.67;;;;;;;7.10;71.07;96134.75;5048158;28;20453;-66
2021/03/15 11:58:29;;;;;;;2.83;2.50;;;;;;;6.71;71.88;96127.41;5050583;28;20190;-66